createdAt,value
2024-03-07T00:01:49.200Z,23.15
2024-03-07T00:04:16.922Z,23.48
2024-03-07T00:06:44.685Z,24.58
2024-03-07T00:09:12.982Z,23.50
2024-03-07T00:11:40.979Z,23.45
2024-03-07T00:14:10.151Z,24.00
2024-03-07T00:16:38.146Z,22.02
2024-03-07T00:19:05.975Z,22.55
2024-03-07T00:21:34.103Z,22.45
2024-03-07T00:24:02.103Z,24.73
2024-03-07T00:26:31.444Z,23.35
2024-03-07T00:28:59.243Z,22.75
2024-03-07T00:31:28.390Z,22.65
2024-03-07T00:34:06.148Z,22.70
2024-03-07T00:36:42.443Z,22.58
2024-03-07T00:39:12.854Z,23.05
2024-03-07T00:41:41.007Z,24.02
2024-03-07T00:44:10.639Z,22.70
2024-03-07T00:46:40.331Z,23.52
2024-03-07T00:49:08.176Z,23.30
2024-03-07T00:51:38.104Z,22.77
2024-03-07T00:54:07.304Z,23.40
2024-03-07T00:56:35.039Z,23.63
2024-03-07T00:59:02.815Z,23.38
2024-03-07T01:01:30.542Z,23.70
2024-03-07T01:03:59.755Z,24.20
2024-03-07T01:06:27.572Z,24.95
2024-03-07T01:08:55.365Z,23.30
2024-03-07T01:11:23.188Z,23.85
2024-03-07T01:13:50.972Z,24.13
2024-03-07T01:16:18.757Z,24.90
2024-03-07T01:18:46.630Z,24.70
2024-03-07T01:21:15.737Z,23.90
2024-03-07T01:23:43.590Z,23.90
2024-03-07T01:26:11.404Z,24.42
2024-03-07T01:28:39.095Z,24.33
2024-03-07T01:31:06.867Z,25.42
2024-03-07T01:33:34.671Z,23.73
2024-03-07T01:36:02.437Z,24.77
2024-03-07T01:38:31.531Z,24.75
2024-03-07T01:40:59.801Z,24.38
2024-03-07T01:43:27.585Z,24.65
2024-03-07T01:45:59.477Z,25.35
2024-03-07T01:48:29.768Z,24.90
2024-03-07T01:50:58.943Z,25.23
2024-03-07T01:53:27.928Z,25.75
2024-03-07T01:55:58.324Z,25.20
2024-03-07T01:58:26.523Z,25.27
2024-03-07T02:00:54.498Z,25.00
2024-03-07T02:03:23.213Z,25.08
2024-03-07T02:05:52.170Z,24.45
2024-03-07T02:08:21.167Z,23.70
2024-03-07T02:10:49.881Z,25.10
2024-03-07T02:13:19.573Z,25.38
2024-03-07T02:15:47.425Z,23.83
2024-03-07T02:18:15.572Z,25.75
2024-03-07T02:20:47.191Z,23.70
2024-03-07T02:23:15.856Z,25.08
2024-03-07T02:25:43.745Z,24.60
2024-03-07T02:28:11.514Z,23.65
2024-03-07T02:30:39.296Z,25.00
2024-03-07T02:33:08.583Z,23.77
2024-03-07T02:35:37.287Z,25.15
2024-03-07T02:38:07.350Z,24.13
2024-03-07T02:40:35.125Z,24.65
2024-03-07T02:43:04.694Z,25.88
2024-03-07T02:45:32.464Z,24.33
2024-03-07T02:48:00.378Z,23.30
2024-03-07T02:50:28.270Z,23.92
2024-03-07T02:52:56.044Z,23.25
2024-03-07T02:55:25.416Z,24.63
2024-03-07T02:57:53.717Z,23.35
2024-03-07T03:00:22.208Z,24.23
2024-03-07T03:02:51.363Z,24.05
2024-03-07T03:05:20.097Z,26.30
2024-03-07T03:07:54.269Z,25.30
2024-03-07T03:10:25.792Z,25.17
2024-03-07T03:12:55.820Z,23.27
2024-03-07T03:15:23.688Z,25.48
2024-03-07T03:17:53.117Z,23.15
2024-03-07T03:20:26.754Z,24.38
2024-03-07T03:25:26.039Z,24.20
2024-03-07T03:27:55.067Z,25.67
2024-03-07T03:30:22.831Z,24.42
2024-03-07T03:32:50.885Z,23.02
2024-03-07T03:35:19.274Z,24.95
2024-03-07T03:37:47.481Z,24.63
2024-03-07T03:40:15.634Z,24.10
2024-03-07T03:42:44.884Z,25.38
2024-03-07T03:45:16.635Z,25.13
2024-03-07T03:47:45.450Z,24.08
2024-03-07T03:50:14.406Z,22.70
2024-03-07T03:52:42.708Z,23.23
2024-03-07T03:55:12.326Z,24.80
2024-03-07T03:57:41.353Z,24.20
2024-03-07T04:00:13.798Z,24.60
2024-03-07T04:02:44.191Z,23.75
2024-03-07T04:05:13.021Z,24.13
2024-03-07T04:07:42.056Z,24.77
2024-03-07T04:10:10.309Z,23.73
2024-03-07T04:12:39.507Z,23.30
2024-03-07T04:15:08.348Z,24.70
2024-03-07T04:17:36.399Z,24.35
2024-03-07T04:20:07.731Z,23.83
2024-03-07T04:22:35.632Z,23.85
2024-03-07T04:25:04.064Z,23.92
2024-03-07T04:27:31.833Z,24.35
2024-03-07T04:29:59.579Z,24.33
2024-03-07T04:32:27.562Z,24.60
2024-03-07T04:34:55.319Z,24.52
2024-03-07T04:37:24.424Z,23.67
2024-03-07T04:39:52.203Z,24.27
2024-03-07T04:42:20.012Z,24.13
2024-03-07T04:44:47.836Z,24.42
2024-03-07T04:47:15.584Z,23.90
2024-03-07T04:49:44.800Z,23.75
2024-03-07T04:52:12.665Z,23.77
2024-03-07T04:54:41.780Z,23.42
2024-03-07T04:57:09.648Z,23.65
2024-03-07T04:59:37.427Z,23.20
2024-03-07T05:02:06.626Z,24.10
2024-03-07T05:04:34.381Z,23.80
2024-03-07T05:07:02.139Z,23.92
2024-03-07T05:09:30.437Z,23.55
2024-03-07T05:11:59.529Z,24.58
2024-03-07T05:14:27.609Z,23.70
2024-03-07T05:17:06.321Z,24.23
2024-03-07T05:19:35.066Z,25.48
2024-03-07T05:22:03.729Z,27.02
2024-03-07T05:24:31.489Z,24.48
2024-03-07T05:27:00.746Z,23.88
2024-03-07T05:29:28.710Z,24.67
2024-03-07T05:31:56.510Z,24.35
2024-03-07T05:34:25.146Z,24.83
2024-03-07T05:36:53.244Z,25.20
2024-03-07T05:39:20.984Z,24.38
2024-03-07T05:41:49.526Z,24.40
2024-03-07T05:44:20.621Z,24.95
2024-03-07T05:46:49.808Z,22.60
2024-03-07T05:49:18.367Z,23.50
2024-03-07T05:51:46.904Z,23.75
2024-03-07T05:54:15.359Z,21.85
2024-03-07T05:56:45.952Z,23.98
2024-03-07T05:59:13.865Z,24.02
2024-03-07T06:01:43.145Z,22.23
2024-03-07T06:04:13.503Z,24.20
2024-03-07T06:06:42.115Z,23.10
2024-03-07T06:09:14.883Z,23.30
2024-03-07T06:11:44.129Z,23.75
2024-03-07T06:14:14.681Z,23.15
2024-03-07T06:16:44.345Z,24.45
2024-03-07T06:19:12.540Z,24.13
2024-03-07T06:21:42.102Z,24.20
2024-03-07T06:24:12.275Z,22.45
2024-03-07T06:26:47.760Z,23.42
2024-03-07T06:29:17.282Z,23.08
2024-03-07T06:31:48.433Z,23.08
2024-03-07T06:34:16.875Z,23.23
2024-03-07T06:36:44.767Z,24.02
2024-03-07T06:39:13.283Z,23.50
2024-03-07T06:41:41.842Z,22.60
2024-03-07T06:44:11.231Z,23.13
2024-03-07T06:46:39.298Z,24.00
2024-03-07T06:49:11.227Z,23.92
2024-03-07T06:51:40.633Z,23.13
2024-03-07T06:54:08.529Z,24.00
2024-03-07T06:56:36.495Z,23.17
2024-03-07T06:59:05.816Z,22.42
2024-03-07T07:01:34.519Z,23.27
2024-03-07T07:04:04.612Z,24.35
2024-03-07T07:06:34.603Z,22.02
2024-03-07T07:09:04.485Z,23.20
2024-03-07T07:11:35.041Z,22.42
2024-03-07T07:14:03.922Z,23.40
2024-03-07T07:16:32.465Z,23.13
2024-03-07T07:19:00.263Z,24.13
2024-03-07T07:21:27.996Z,22.63
2024-03-07T07:23:57.726Z,23.33
2024-03-07T07:26:27.032Z,24.15
2024-03-07T07:28:55.327Z,24.92
2024-03-07T07:31:23.293Z,24.13
2024-03-07T07:33:51.758Z,22.92
2024-03-07T07:36:20.125Z,24.27
2024-03-07T07:38:47.999Z,23.48
2024-03-07T07:41:17.347Z,23.60
2024-03-07T07:43:45.004Z,21.80
2024-03-07T07:46:12.725Z,23.35
2024-03-07T07:48:40.687Z,22.63
2024-03-07T07:51:08.559Z,23.88
2024-03-07T07:53:36.681Z,22.77
2024-03-07T07:56:04.580Z,23.33
2024-03-07T07:58:33.657Z,22.98
2024-03-07T08:01:01.688Z,22.25
2024-03-07T08:03:29.486Z,22.17
2024-03-07T08:05:57.266Z,22.38
2024-03-07T08:08:25.678Z,21.58
2024-03-07T08:10:53.625Z,21.40
2024-03-07T08:13:21.423Z,21.15
2024-03-07T08:15:50.565Z,23.02
2024-03-07T08:18:18.473Z,21.60
2024-03-07T08:20:46.297Z,20.63
2024-03-07T08:23:17.234Z,20.70
2024-03-07T08:25:45.242Z,21.88
2024-03-07T08:28:13.113Z,19.67
2024-03-07T08:30:42.020Z,19.85
2024-03-07T08:33:11.383Z,21.13
2024-03-07T08:35:39.344Z,20.85
2024-03-07T08:38:09.730Z,18.80
2024-03-07T08:40:37.697Z,18.92
2024-03-07T08:43:08.109Z,18.33
2024-03-07T08:45:36.536Z,17.50
2024-03-07T08:48:06.852Z,17.90
2024-03-07T08:50:38.764Z,18.25
2024-03-07T08:53:07.395Z,17.50
2024-03-07T08:55:38.534Z,17.83
2024-03-07T08:58:08.699Z,18.20
2024-03-07T09:00:39.356Z,17.85
2024-03-07T09:03:11.617Z,17.67
2024-03-07T09:05:43.174Z,18.00
2024-03-07T09:08:11.021Z,17.05
2024-03-07T09:10:42.415Z,17.10
2024-03-07T09:13:11.071Z,16.13
2024-03-07T09:15:39.091Z,15.77
2024-03-07T09:18:07.203Z,15.10
2024-03-07T09:20:35.871Z,14.77
2024-03-07T09:23:05.325Z,12.68
2024-03-07T09:25:34.182Z,13.73
2024-03-07T09:28:02.217Z,12.93
2024-03-07T09:30:31.676Z,13.60
2024-03-07T09:32:59.697Z,12.65
2024-03-07T09:35:27.896Z,12.95
2024-03-07T09:37:56.176Z,11.52
2024-03-07T09:40:27.716Z,11.80
2024-03-07T09:42:59.515Z,11.65
2024-03-07T09:45:32.614Z,12.98
2024-03-07T09:50:32.633Z,13.75
2024-03-07T09:53:01.623Z,12.13
2024-03-07T09:55:31.095Z,12.95
2024-03-07T09:58:01.212Z,13.25
2024-03-07T10:00:31.309Z,13.20
2024-03-07T10:03:01.481Z,13.00
2024-03-07T10:05:30.984Z,13.63
2024-03-07T10:07:59.139Z,14.27
2024-03-07T10:10:27.281Z,13.80
2024-03-07T10:12:58.311Z,13.73
2024-03-07T10:15:30.747Z,12.88
2024-03-07T10:17:58.764Z,13.73
2024-03-07T10:20:26.728Z,13.48
2024-03-07T10:22:54.638Z,13.90
2024-03-07T10:25:25.593Z,12.90
2024-03-07T10:27:53.720Z,12.98
2024-03-07T10:30:23.715Z,12.95
2024-03-07T10:32:57.187Z,13.77
2024-03-07T10:35:26.095Z,13.88
2024-03-07T10:37:56.034Z,13.13
2024-03-07T10:40:23.983Z,14.55
2024-03-07T10:42:54.249Z,13.90
2024-03-07T10:45:24.877Z,14.07
2024-03-07T10:47:58.065Z,14.95
2024-03-07T10:50:41.903Z,14.30
2024-03-07T10:53:19.956Z,15.00
2024-03-07T10:56:01.305Z,13.75
2024-03-07T10:58:39.271Z,13.05
2024-03-07T11:01:12.256Z,15.05
2024-03-07T11:03:40.593Z,14.07
2024-03-07T11:06:12.516Z,13.73
2024-03-07T11:08:41.261Z,13.90
2024-03-07T11:11:09.993Z,13.88
2024-03-07T11:13:39.307Z,14.00
2024-03-07T11:16:11.036Z,15.07
2024-03-07T11:18:39.399Z,14.07
2024-03-07T11:21:09.584Z,13.75
2024-03-07T11:23:42.434Z,14.65
2024-03-07T11:28:40.915Z,15.00
2024-03-07T11:31:15.649Z,14.73
2024-03-07T11:33:45.258Z,13.57
2024-03-07T11:36:14.046Z,13.70
2024-03-07T11:38:46.941Z,13.77
2024-03-07T11:43:44.518Z,14.95
2024-03-07T11:46:18.030Z,14.43
2024-03-07T11:48:46.729Z,14.45
2024-03-07T11:51:16.581Z,14.70
2024-03-07T11:53:49.099Z,15.13
2024-03-07T11:56:18.686Z,14.20
2024-03-07T11:58:53.529Z,16.10
2024-03-07T12:01:26.608Z,15.45
2024-03-07T12:03:57.479Z,15.95
2024-03-07T12:06:26.571Z,16.48
2024-03-07T12:08:54.396Z,15.93
2024-03-07T12:11:22.695Z,16.42
2024-03-07T12:13:51.118Z,16.55
2024-03-07T12:16:19.092Z,16.90
2024-03-07T12:18:49.752Z,16.42
2024-03-07T12:21:18.417Z,16.13
2024-03-07T12:23:47.096Z,16.80
2024-03-07T12:26:18.275Z,16.90
2024-03-07T12:28:47.834Z,15.95
2024-03-07T12:31:17.988Z,16.40
2024-03-07T12:33:52.932Z,16.10
2024-03-07T12:36:24.007Z,15.88
2024-03-07T12:38:55.887Z,16.00
2024-03-07T12:41:25.117Z,15.73
2024-03-07T12:43:53.326Z,15.88
2024-03-07T12:46:21.593Z,15.70
2024-03-07T12:48:51.305Z,15.77
2024-03-07T12:51:21.575Z,15.15
2024-03-07T12:53:51.320Z,16.13
2024-03-07T12:56:20.938Z,15.40
2024-03-07T12:58:51.183Z,14.90
2024-03-07T13:01:20.866Z,14.25
2024-03-07T13:03:50.766Z,14.43
2024-03-07T13:06:24.657Z,14.60
2024-03-07T13:08:53.932Z,15.10
2024-03-07T13:11:22.235Z,15.13
2024-03-07T13:13:50.132Z,13.90
2024-03-07T13:16:17.881Z,14.10
2024-03-07T13:18:47.179Z,14.48
2024-03-07T13:21:18.696Z,15.02
2024-03-07T13:23:46.863Z,13.90
2024-03-07T13:26:25.170Z,13.75
2024-03-07T13:28:54.366Z,12.93
2024-03-07T13:31:22.246Z,13.80
2024-03-07T13:33:52.788Z,12.82
2024-03-07T13:36:25.775Z,13.48
2024-03-07T13:41:29.816Z,12.50
2024-03-07T13:43:58.320Z,12.20
2024-03-07T13:46:26.281Z,12.98
2024-03-07T13:48:54.720Z,12.20
2024-03-07T13:51:22.851Z,12.23
2024-03-07T13:53:52.191Z,12.75
2024-03-07T13:56:52.143Z,12.07
2024-03-07T13:59:54.228Z,12.23
2024-03-07T14:02:45.696Z,12.57
2024-03-07T14:05:41.398Z,12.40
2024-03-07T14:08:29.321Z,11.85
2024-03-07T14:11:21.931Z,12.52
2024-03-07T14:14:12.441Z,12.82
2024-03-07T14:17:14.445Z,12.98
2024-03-07T14:20:21.392Z,13.02
2024-03-07T14:23:17.762Z,12.68
2024-03-07T14:26:05.343Z,13.63
2024-03-07T14:29:07.107Z,13.90
2024-03-07T14:31:36.541Z,14.07
2024-03-07T14:34:11.285Z,15.52
2024-03-07T14:36:46.355Z,14.27
2024-03-07T14:39:15.797Z,16.45
2024-03-07T14:41:50.115Z,15.60
2024-03-07T14:44:21.052Z,14.07
2024-03-07T14:46:53.984Z,15.15
2024-03-07T14:49:24.389Z,13.13
2024-03-07T14:52:00.056Z,12.73
2024-03-07T14:54:30.035Z,12.68
2024-03-07T14:56:58.325Z,13.15
2024-03-07T14:59:27.720Z,13.82
2024-03-07T15:01:56.653Z,13.38
2024-03-07T15:04:25.170Z,13.07
2024-03-07T15:06:53.884Z,12.85
2024-03-07T15:09:21.833Z,12.45
2024-03-07T15:11:50.639Z,12.63
2024-03-07T15:14:26.266Z,12.52
2024-03-07T15:17:05.355Z,13.88
2024-03-07T15:19:33.318Z,11.90
2024-03-07T15:22:01.331Z,11.82
2024-03-07T15:24:29.220Z,11.38
2024-03-07T15:26:58.879Z,11.27
2024-03-07T15:29:28.745Z,11.68
2024-03-07T15:31:57.593Z,13.73
2024-03-07T15:34:27.787Z,12.18
2024-03-07T15:37:02.620Z,19.10
2024-03-07T15:39:31.783Z,15.68
2024-03-07T15:42:00.592Z,13.57
2024-03-07T15:44:28.689Z,12.07
2024-03-07T15:46:56.774Z,16.15
2024-03-07T15:49:26.758Z,12.05
2024-03-07T15:51:55.387Z,15.35
2024-03-07T15:54:25.035Z,18.52
2024-03-07T15:56:53.176Z,14.90
2024-03-07T15:59:22.537Z,14.65
2024-03-07T16:01:51.755Z,16.00
2024-03-07T16:04:19.986Z,13.57
2024-03-07T16:06:49.249Z,13.25
2024-03-07T16:09:23.859Z,14.25
2024-03-07T16:11:54.837Z,16.92
2024-03-07T16:14:22.798Z,15.15
2024-03-07T16:16:52.321Z,17.05
2024-03-07T16:19:23.616Z,14.30
2024-03-07T16:21:53.044Z,14.50
2024-03-07T16:24:20.875Z,14.45
2024-03-07T16:26:48.773Z,13.65
2024-03-07T16:29:16.578Z,13.38
2024-03-07T16:31:45.656Z,14.00
2024-03-07T16:34:13.971Z,13.35
2024-03-07T16:36:41.782Z,13.73
2024-03-07T16:39:13.313Z,14.38
2024-03-07T16:41:41.908Z,16.92
2024-03-07T16:44:10.203Z,15.52
2024-03-07T16:46:38.948Z,13.93
2024-03-07T16:49:09.240Z,14.27
2024-03-07T16:51:37.659Z,14.10
2024-03-07T16:54:06.572Z,13.18
2024-03-07T16:56:41.998Z,13.27
2024-03-07T16:59:11.306Z,12.27
2024-03-07T17:01:45.598Z,11.52
2024-03-07T17:04:14.169Z,11.25
2024-03-07T17:06:41.943Z,10.48
2024-03-07T17:09:12.243Z,11.05
2024-03-07T17:11:42.662Z,11.93
2024-03-07T17:14:11.338Z,11.10
2024-03-07T17:16:39.797Z,10.27
2024-03-07T17:19:11.033Z,10.25
2024-03-07T17:21:39.039Z,10.77
2024-03-07T17:24:07.520Z,10.93
2024-03-07T17:26:35.867Z,10.35
2024-03-07T17:29:07.327Z,9.98
2024-03-07T17:31:35.724Z,10.20
2024-03-07T17:34:03.520Z,10.40
2024-03-07T17:36:33.668Z,10.05
2024-03-07T17:39:01.798Z,10.20
2024-03-07T17:41:29.856Z,10.02
2024-03-07T17:43:59.866Z,10.65
2024-03-07T17:46:29.075Z,9.70
2024-03-07T17:48:57.300Z,9.63
2024-03-07T17:51:25.343Z,11.05
2024-03-07T17:53:53.218Z,10.73
2024-03-07T17:56:21.161Z,10.38
2024-03-07T17:58:49.079Z,10.57
2024-03-07T18:01:16.990Z,10.57
2024-03-07T18:03:48.304Z,10.50
2024-03-07T18:06:16.477Z,10.77
2024-03-07T18:08:48.995Z,10.15
2024-03-07T18:11:24.834Z,10.82
2024-03-07T18:13:54.199Z,10.25
2024-03-07T18:16:22.020Z,10.50
2024-03-07T18:18:54.197Z,9.98
2024-03-07T18:21:22.916Z,11.60
2024-03-07T18:23:50.935Z,10.55
2024-03-07T18:26:19.896Z,10.13
2024-03-07T18:28:48.219Z,10.07
2024-03-07T18:31:19.505Z,9.35
2024-03-07T18:33:47.854Z,9.82
2024-03-07T18:36:20.349Z,10.52
2024-03-07T18:38:48.725Z,10.13
2024-03-07T18:41:17.618Z,10.30
2024-03-07T18:43:45.532Z,11.20
2024-03-07T18:46:13.826Z,10.43
2024-03-07T18:48:41.779Z,9.70
2024-03-07T18:51:10.227Z,10.38
2024-03-07T18:53:39.625Z,10.02
2024-03-07T18:56:11.929Z,10.90
2024-03-07T18:58:40.470Z,10.43
2024-03-07T19:01:08.597Z,11.05
2024-03-07T19:03:36.858Z,11.00
2024-03-07T19:06:09.524Z,10.27
2024-03-07T19:08:39.249Z,11.85
2024-03-07T19:11:07.978Z,11.48
2024-03-07T19:13:37.591Z,11.20
2024-03-07T19:16:09.993Z,10.15
2024-03-07T19:18:39.632Z,9.95
2024-03-07T19:21:11.832Z,10.90
2024-03-07T19:23:46.791Z,10.27
2024-03-07T19:26:17.780Z,9.93
2024-03-07T19:28:48.546Z,10.80
2024-03-07T19:31:17.407Z,9.60
2024-03-07T19:33:45.397Z,9.75
2024-03-07T19:36:15.884Z,10.15
2024-03-07T19:38:48.952Z,10.77
2024-03-07T19:41:17.505Z,9.35
2024-03-07T19:43:45.450Z,9.98
2024-03-07T19:46:14.338Z,9.32
2024-03-07T19:48:45.086Z,9.15
2024-03-07T19:51:13.485Z,9.23
2024-03-07T19:53:41.567Z,10.02
2024-03-07T19:56:13.861Z,9.27
2024-03-07T19:58:42.109Z,10.13
2024-03-07T20:01:12.721Z,10.73
2024-03-07T20:03:41.086Z,10.93
2024-03-07T20:06:09.994Z,9.32
2024-03-07T20:08:38.148Z,10.25
2024-03-07T20:11:06.365Z,10.63
2024-03-07T20:13:36.662Z,10.00
2024-03-07T20:16:04.892Z,9.85
2024-03-07T20:18:33.455Z,9.73
2024-03-07T20:21:04.081Z,9.38
2024-03-07T20:23:34.109Z,8.55
2024-03-07T20:26:06.112Z,14.43
2024-03-07T20:28:35.276Z,11.33
2024-03-07T20:31:03.010Z,9.95
2024-03-07T20:33:30.941Z,9.50
2024-03-07T20:36:03.600Z,9.32
2024-03-07T20:38:33.337Z,10.48
2024-03-07T20:41:01.559Z,9.38
2024-03-07T20:43:29.429Z,9.90
2024-03-07T20:45:58.596Z,10.05
2024-03-07T20:48:26.753Z,9.57
2024-03-07T20:50:56.493Z,10.15
2024-03-07T20:53:31.028Z,9.68
2024-03-07T20:55:59.960Z,9.75
2024-03-07T20:58:28.613Z,10.05
2024-03-07T21:00:56.416Z,10.13
2024-03-07T21:03:28.455Z,10.15
2024-03-07T21:05:56.722Z,10.23
2024-03-07T21:08:24.496Z,10.20
2024-03-07T21:10:52.319Z,10.57
2024-03-07T21:13:22.162Z,9.77
2024-03-07T21:15:50.168Z,10.55
2024-03-07T21:18:20.538Z,10.82
2024-03-07T21:20:53.726Z,10.80
2024-03-07T21:23:24.902Z,10.15
2024-03-07T21:25:52.918Z,10.35
2024-03-07T21:28:22.262Z,10.48
2024-03-07T21:30:50.851Z,10.38
2024-03-07T21:33:18.762Z,11.60
2024-03-07T21:35:47.268Z,10.93
2024-03-07T21:38:20.342Z,11.60
2024-03-07T21:40:49.068Z,10.70
2024-03-07T21:43:16.853Z,11.38
2024-03-07T21:45:45.884Z,10.52
2024-03-07T21:48:14.968Z,10.95
2024-03-07T21:50:43.764Z,11.73
2024-03-07T21:53:12.160Z,12.02
2024-03-07T21:55:42.494Z,12.75
2024-03-07T21:58:12.616Z,11.70
2024-03-07T22:00:40.496Z,12.43
2024-03-07T22:03:09.900Z,12.70
2024-03-07T22:05:37.819Z,12.18
2024-03-07T22:08:07.507Z,11.98
2024-03-07T22:10:36.665Z,11.98
2024-03-07T22:13:07.222Z,12.30
2024-03-07T22:15:35.777Z,12.63
2024-03-07T22:18:05.806Z,13.02
2024-03-07T22:20:34.022Z,12.27
2024-03-07T22:23:02.068Z,12.07
2024-03-07T22:25:30.581Z,11.80
2024-03-07T22:28:00.505Z,11.38
2024-03-07T22:30:29.952Z,11.82
2024-03-07T22:32:57.768Z,12.38
2024-03-07T22:35:25.983Z,12.32
2024-03-07T22:37:56.078Z,12.55
2024-03-07T22:40:28.934Z,12.63
2024-03-07T22:42:58.039Z,12.40
2024-03-07T22:45:27.124Z,13.10
2024-03-07T22:47:56.450Z,12.27
2024-03-07T22:50:29.813Z,12.20
2024-03-07T22:53:00.279Z,12.00
2024-03-07T22:55:29.076Z,12.52
2024-03-07T22:57:57.041Z,13.40
2024-03-07T23:00:28.529Z,12.98
2024-03-07T23:05:29.956Z,11.82
2024-03-07T23:08:00.715Z,13.02
2024-03-07T23:10:29.229Z,12.60
2024-03-07T23:13:00.855Z,12.77
2024-03-07T23:15:29.474Z,12.80
2024-03-07T23:18:00.580Z,12.73
2024-03-07T23:20:30.050Z,12.90
2024-03-07T23:23:00.171Z,13.05
2024-03-07T23:25:29.016Z,13.27
2024-03-07T23:27:57.772Z,13.35
2024-03-07T23:30:28.078Z,12.68
2024-03-07T23:32:57.250Z,13.20
2024-03-07T23:35:28.101Z,13.43
2024-03-07T23:37:56.066Z,13.50
2024-03-07T23:40:24.262Z,13.93
2024-03-07T23:42:53.196Z,12.80
2024-03-07T23:45:22.221Z,14.05
2024-03-07T23:47:50.568Z,12.93
2024-03-07T23:50:18.977Z,13.93
2024-03-07T23:52:48.377Z,13.90
2024-03-07T23:55:18.617Z,13.32
2024-03-07T23:57:47.155Z,14.02
